sensor_id;sensor_type;location;lat;lon;timestamp;pressure;altitude;pressure_sealevel;temperature;humidity
7337;BME280;54510;42.016;23.098;2023-04-20T00:02:02;-21522.41;;;14.12;60.85
7337;BME280;54510;42.016;23.098;2023-04-20T00:04:28;-21523.50;;;14.16;60.78
7337;BME280;54510;42.016;23.098;2023-04-20T00:06:53;-21518.81;;;13.99;61.19
7337;BME280;54510;42.016;23.098;2023-04-20T00:09:21;-21515.19;;;13.85;61.75
7337;BME280;54510;42.016;23.098;2023-04-20T00:11:46;-21518.38;;;13.97;61.59
7337;BME280;54510;42.016;23.098;2023-04-20T00:14:12;-21513.25;;;13.78;62.12
7337;BME280;54510;42.016;23.098;2023-04-20T00:16:37;-21511.19;;;13.71;62.52
7337;BME280;54510;42.016;23.098;2023-04-20T00:19:02;-21515.75;;;13.88;62.03
7337;BME280;54510;42.016;23.098;2023-04-20T00:21:28;-21519.63;;;14.02;61.67
7337;BME280;54510;42.016;23.098;2023-04-20T00:23:53;-21518.25;;;13.97;61.63
7337;BME280;54510;42.016;23.098;2023-04-20T00:26:18;-21516.44;;;13.90;62.19
7337;BME280;54510;42.016;23.098;2023-04-20T00:28:44;-21521.56;;;14.09;61.70
7337;BME280;54510;42.016;23.098;2023-04-20T00:31:09;-21522.94;;;14.14;61.30
7337;BME280;54510;42.016;23.098;2023-04-20T00:33:34;-21524.06;;;14.18;61.37
7337;BME280;54510;42.016;23.098;2023-04-20T00:36:00;-21524.88;;;14.21;61.06
7337;BME280;54510;42.016;23.098;2023-04-20T00:38:25;-21518.81;;;13.99;61.75
7337;BME280;54510;42.016;23.098;2023-04-20T00:40:51;-21510.50;;;13.68;62.77
7337;BME280;54510;42.016;23.098;2023-04-20T00:43:18;-21507.47;;;13.57;63.43
7337;BME280;54510;42.016;23.098;2023-04-20T00:45:47;-21508.69;;;13.62;63.27
7337;BME280;54510;42.016;23.098;2023-04-20T00:48:12;-21500.69;;;13.32;63.93
7337;BME280;54510;42.016;23.098;2023-04-20T00:50:38;-21502.91;;;13.40;63.70
7337;BME280;54510;42.016;23.098;2023-04-20T00:53:03;-21500.25;;;13.31;64.07
7337;BME280;54510;42.016;23.098;2023-04-20T00:55:30;-21504.56;;;13.47;63.74
7337;BME280;54510;42.016;23.098;2023-04-20T00:57:55;-21510.78;;;13.69;63.09
7337;BME280;54510;42.016;23.098;2023-04-20T01:00:21;-21506.34;;;13.53;63.48
7337;BME280;54510;42.016;23.098;2023-04-20T01:02:46;-21509.53;;;13.65;62.90
7337;BME280;54510;42.016;23.098;2023-04-20T01:05:12;-21516.03;;;13.89;62.59
7337;BME280;54510;42.016;23.098;2023-04-20T01:07:37;-21512.56;;;13.76;62.59
7337;BME280;54510;42.016;23.098;2023-04-20T01:10:04;-21504.69;;;13.47;63.29
7337;BME280;54510;42.016;23.098;2023-04-20T01:12:29;-21505.78;;;13.51;63.36
7337;BME280;54510;42.016;23.098;2023-04-20T01:14:54;-21502.47;;;13.39;63.89
7337;BME280;54510;42.016;23.098;2023-04-20T01:17:20;-21506.91;;;13.55;63.74
7337;BME280;54510;42.016;23.098;2023-04-20T01:19:45;-21506.34;;;13.53;63.25
7337;BME280;54510;42.016;23.098;2023-04-20T01:22:17;-21509.94;;;13.66;62.99
7337;BME280;54510;42.016;23.098;2023-04-20T01:24:43;-21506.78;;;13.55;63.41
7337;BME280;54510;42.016;23.098;2023-04-20T01:27:08;-21503.31;;;13.42;63.66
7337;BME280;54510;42.016;23.098;2023-04-20T01:29:33;-21504.56;;;13.47;63.24
7337;BME280;54510;42.016;23.098;2023-04-20T01:31:59;-21504.41;;;13.46;63.45
7337;BME280;54510;42.016;23.098;2023-04-20T01:34:24;-21501.66;;;13.36;63.41
7337;BME280;54510;42.016;23.098;2023-04-20T01:36:50;-21503.44;;;13.42;63.33
7337;BME280;54510;42.016;23.098;2023-04-20T01:39:15;-21504.00;;;13.44;63.17
7337;BME280;54510;42.016;23.098;2023-04-20T01:41:41;-21504.97;;;13.48;63.17
7337;BME280;54510;42.016;23.098;2023-04-20T01:44:06;-21504.41;;;13.46;63.15
7337;BME280;54510;42.016;23.098;2023-04-20T01:46:31;-21505.25;;;13.49;63.40
7337;BME280;54510;42.016;23.098;2023-04-20T01:48:57;-21505.94;;;13.52;63.21
7337;BME280;54510;42.016;23.098;2023-04-20T01:51:22;-21507.47;;;13.57;62.88
7337;BME280;54510;42.016;23.098;2023-04-20T01:53:47;-21507.72;;;13.58;62.92
7337;BME280;54510;42.016;23.098;2023-04-20T01:56:12;-21506.34;;;13.53;63.11
7337;BME280;54510;42.016;23.098;2023-04-20T01:58:38;-21512.44;;;13.75;62.54
7337;BME280;54510;42.016;23.098;2023-04-20T02:01:03;-21508.84;;;13.62;62.52
7337;BME280;54510;42.016;23.098;2023-04-20T02:03:29;-21510.22;;;13.67;62.62
7337;BME280;54510;42.016;23.098;2023-04-20T02:05:54;-21510.50;;;13.68;62.35
7337;BME280;54510;42.016;23.098;2023-04-20T02:08:20;-21514.50;;;13.83;61.93
7337;BME280;54510;42.016;23.098;2023-04-20T02:10:45;-21515.06;;;13.85;61.44
7337;BME280;54510;42.016;23.098;2023-04-20T02:13:10;-21508.16;;;13.60;61.99
7337;BME280;54510;42.016;23.098;2023-04-20T02:15:35;-21508.16;;;13.60;62.38
7337;BME280;54510;42.016;23.098;2023-04-20T02:18:01;-21502.91;;;13.40;62.92
7337;BME280;54510;42.016;23.098;2023-04-20T02:20:27;-21506.34;;;13.53;62.51
7337;BME280;54510;42.016;23.098;2023-04-20T02:22:53;-21507.72;;;13.58;62.57
7337;BME280;54510;42.016;23.098;2023-04-20T02:25:19;-21510.22;;;13.67;62.58
7337;BME280;54510;42.016;23.098;2023-04-20T02:27:44;-21513.81;;;13.80;62.01
7337;BME280;54510;42.016;23.098;2023-04-20T02:30:10;-21513.53;;;13.79;62.26
7337;BME280;54510;42.016;23.098;2023-04-20T02:32:35;-21513.00;;;13.77;62.21
7337;BME280;54510;42.016;23.098;2023-04-20T02:35:01;-21516.03;;;13.89;62.03
7337;BME280;54510;42.016;23.098;2023-04-20T02:37:28;-21518.25;;;13.97;62.32
7337;BME280;54510;42.016;23.098;2023-04-20T02:39:53;-21517.56;;;13.94;62.53
7337;BME280;54510;42.016;23.098;2023-04-20T02:42:18;-21514.66;;;13.83;62.86
7337;BME280;54510;42.016;23.098;2023-04-20T02:44:43;-21509.81;;;13.66;63.15
7337;BME280;54510;42.016;23.098;2023-04-20T02:47:09;-21505.78;;;13.51;64.08
7337;BME280;54510;42.016;23.098;2023-04-20T02:49:34;-21510.91;;;13.70;63.81
7337;BME280;54510;42.016;23.098;2023-04-20T02:51:59;-21509.41;;;13.64;63.81
7337;BME280;54510;42.016;23.098;2023-04-20T02:54:25;-21506.34;;;13.53;64.19
7337;BME280;54510;42.016;23.098;2023-04-20T02:56:50;-21505.38;;;13.50;64.53
7337;BME280;54510;42.016;23.098;2023-04-20T02:59:15;-21507.47;;;13.57;64.05
7337;BME280;54510;42.016;23.098;2023-04-20T03:01:41;-21510.63;;;13.69;63.82
7337;BME280;54510;42.016;23.098;2023-04-20T03:04:06;-21512.72;;;13.76;63.36
7337;BME280;54510;42.016;23.098;2023-04-20T03:06:31;-21514.66;;;13.83;63.31
7337;BME280;54510;42.016;23.098;2023-04-20T03:08:57;-21513.25;;;13.78;63.21
7337;BME280;54510;42.016;23.098;2023-04-20T03:11:22;-21506.22;;;13.53;63.41
7337;BME280;54510;42.016;23.098;2023-04-20T03:13:48;-21507.31;;;13.57;63.47
7337;BME280;54510;42.016;23.098;2023-04-20T03:16:13;-21510.22;;;13.67;63.02
7337;BME280;54510;42.016;23.098;2023-04-20T03:18:38;-21514.38;;;13.82;63.16
7337;BME280;54510;42.016;23.098;2023-04-20T03:21:04;-21518.81;;;13.99;62.76
7337;BME280;54510;42.016;23.098;2023-04-20T03:23:29;-21517.56;;;13.94;62.74
7337;BME280;54510;42.016;23.098;2023-04-20T03:25:55;-21514.38;;;13.82;62.80
7337;BME280;54510;42.016;23.098;2023-04-20T03:28:21;-21512.44;;;13.75;63.24
7337;BME280;54510;42.016;23.098;2023-04-20T03:30:46;-21514.38;;;13.82;63.08
7337;BME280;54510;42.016;23.098;2023-04-20T03:33:11;-21512.16;;;13.74;62.79
7337;BME280;54510;42.016;23.098;2023-04-20T03:35:37;-21514.22;;;13.82;62.15
7337;BME280;54510;42.016;23.098;2023-04-20T03:38:03;-21512.56;;;13.76;62.16
7337;BME280;54510;42.016;23.098;2023-04-20T03:40:28;-21515.06;;;13.85;61.69
7337;BME280;54510;42.016;23.098;2023-04-20T03:42:54;-21518.09;;;13.96;61.58
7337;BME280;54510;42.016;23.098;2023-04-20T03:45:20;-21518.81;;;13.99;61.37
7337;BME280;54510;42.016;23.098;2023-04-20T03:47:45;-21519.22;;;14.00;61.10
7337;BME280;54510;42.016;23.098;2023-04-20T03:50:10;-21517.41;;;13.94;61.60
7337;BME280;54510;42.016;23.098;2023-04-20T03:52:35;-21517.41;;;13.94;61.39
7337;BME280;54510;42.016;23.098;2023-04-20T03:55:01;-21521.00;;;14.07;60.87
7337;BME280;54510;42.016;23.098;2023-04-20T03:57:26;-21519.06;;;14.00;61.09
7337;BME280;54510;42.016;23.098;2023-04-20T03:59:51;-21523.78;;;14.17;61.08
7337;BME280;54510;42.016;23.098;2023-04-20T04:02:16;-21523.78;;;14.17;62.04
7337;BME280;54510;42.016;23.098;2023-04-20T04:04:42;-21528.47;;;14.34;61.53
7337;BME280;54510;42.016;23.098;2023-04-20T04:07:07;-21527.78;;;14.32;61.19
7337;BME280;54510;42.016;23.098;2023-04-20T04:09:32;-21523.34;;;14.15;61.89
7337;BME280;54510;42.016;23.098;2023-04-20T04:11:58;-21517.41;;;13.94;61.98
7337;BME280;54510;42.016;23.098;2023-04-20T04:14:23;-21518.25;;;13.97;62.47
7337;BME280;54510;42.016;23.098;2023-04-20T04:16:48;-21517.97;;;13.96;62.71
7337;BME280;54510;42.016;23.098;2023-04-20T04:19:13;-21522.13;;;14.11;62.10
7337;BME280;54510;42.016;23.098;2023-04-20T04:21:39;-21521.84;;;14.10;61.75
7337;BME280;54510;42.016;23.098;2023-04-20T04:24:05;-21521.00;;;14.07;62.03
7337;BME280;54510;42.016;23.098;2023-04-20T04:26:31;-21522.66;;;14.13;62.03
7337;BME280;54510;42.016;23.098;2023-04-20T04:28:59;-21520.72;;;14.06;62.13
7337;BME280;54510;42.016;23.098;2023-04-20T04:31:25;-21519.75;;;14.02;62.47
7337;BME280;54510;42.016;23.098;2023-04-20T04:33:50;-21515.91;;;13.88;62.40
7337;BME280;54510;42.016;23.098;2023-04-20T04:36:15;-21517.56;;;13.94;62.37
7337;BME280;54510;42.016;23.098;2023-04-20T04:38:41;-21518.94;;;13.99;62.63
7337;BME280;54510;42.016;23.098;2023-04-20T04:41:11;-21519.50;;;14.01;62.07
7337;BME280;54510;42.016;23.098;2023-04-20T04:43:37;-21520.03;;;14.03;62.36
7337;BME280;54510;42.016;23.098;2023-04-20T04:46:06;-21521.56;;;14.09;61.72
7337;BME280;54510;42.016;23.098;2023-04-20T04:48:35;-21521.41;;;14.08;62.03
7337;BME280;54510;42.016;23.098;2023-04-20T04:51:00;-21520.19;;;14.04;62.08
7337;BME280;54510;42.016;23.098;2023-04-20T04:53:26;-21522.53;;;14.12;61.68
7337;BME280;54510;42.016;23.098;2023-04-20T04:55:52;-21524.31;;;14.19;61.75
7337;BME280;54510;42.016;23.098;2023-04-20T04:58:19;-21525.72;;;14.24;61.91
7337;BME280;54510;42.016;23.098;2023-04-20T05:00:45;-21525.44;;;14.23;61.93
7337;BME280;54510;42.016;23.098;2023-04-20T05:03:10;-21530.81;;;14.43;61.35
7337;BME280;54510;42.016;23.098;2023-04-20T05:05:36;-21533.19;;;14.51;61.04
7337;BME280;54510;42.016;23.098;2023-04-20T05:08:21;-21530.53;;;14.42;61.62
7337;BME280;54510;42.016;23.098;2023-04-20T05:10:48;-21534.28;;;14.55;61.32
7337;BME280;54510;42.016;23.098;2023-04-20T05:13:26;-21536.22;;;14.62;60.95
7337;BME280;54510;42.016;23.098;2023-04-20T05:15:53;-21541.72;;;14.83;60.75
7337;BME280;54510;42.016;23.098;2023-04-20T05:18:19;-21538.28;;;14.70;60.62
7337;BME280;54510;42.016;23.098;2023-04-20T05:20:44;-21538.69;;;14.72;60.42
7337;BME280;54510;42.016;23.098;2023-04-20T05:23:09;-21538.41;;;14.71;60.52
7337;BME280;54510;42.016;23.098;2023-04-20T05:25:35;-21538.16;;;14.70;60.48
7337;BME280;54510;42.016;23.098;2023-04-20T05:28:01;-21537.31;;;14.67;60.89
7337;BME280;54510;42.016;23.098;2023-04-20T05:30:26;-21543.53;;;14.89;60.33
7337;BME280;54510;42.016;23.098;2023-04-20T05:32:51;-21540.63;;;14.79;60.42
7337;BME280;54510;42.016;23.098;2023-04-20T05:35:16;-21546.97;;;15.02;60.02
7337;BME280;54510;42.016;23.098;2023-04-20T05:37:42;-21546.44;;;15.00;59.81
7337;BME280;54510;42.016;23.098;2023-04-20T05:40:07;-21548.38;;;15.07;59.82
7337;BME280;54510;42.016;23.098;2023-04-20T05:42:33;-21544.22;;;14.92;60.47
7337;BME280;54510;42.016;23.098;2023-04-20T05:44:58;-21546.97;;;15.02;60.09
7337;BME280;54510;42.016;23.098;2023-04-20T05:47:23;-21546.28;;;14.99;60.23
7337;BME280;54510;42.016;23.098;2023-04-20T05:49:49;-21544.09;;;14.91;60.64
7337;BME280;54510;42.016;23.098;2023-04-20T05:52:15;-21548.38;;;15.07;60.25
7337;BME280;54510;42.016;23.098;2023-04-20T05:54:40;-21548.09;;;15.06;59.99
7337;BME280;54510;42.016;23.098;2023-04-20T05:57:05;-21552.91;;;15.24;59.86
7337;BME280;54510;42.016;23.098;2023-04-20T05:59:30;-21550.97;;;15.17;59.88
7337;BME280;54510;42.016;23.098;2023-04-20T06:01:56;-21548.63;;;15.08;60.04
7337;BME280;54510;42.016;23.098;2023-04-20T06:04:21;-21550.97;;;15.17;59.78
7337;BME280;54510;42.016;23.098;2023-04-20T06:06:47;-21562.16;;;15.58;59.20
7337;BME280;54510;42.016;23.098;2023-04-20T06:09:12;-21562.59;;;15.59;58.52
7337;BME280;54510;42.016;23.098;2023-04-20T06:11:38;-21568.78;;;15.82;58.10
7337;BME280;54510;42.016;23.098;2023-04-20T06:14:03;-21563.28;;;15.62;58.58
7337;BME280;54510;42.016;23.098;2023-04-20T06:16:28;-21571.69;;;15.93;57.94
7337;BME280;54510;42.016;23.098;2023-04-20T06:18:54;-21567.97;;;15.79;57.99
7337;BME280;54510;42.016;23.098;2023-04-20T06:21:19;-21570.59;;;15.89;57.91
7337;BME280;54510;42.016;23.098;2023-04-20T06:23:44;-21566.84;;;15.75;58.05
7337;BME280;54510;42.016;23.098;2023-04-20T06:26:10;-21569.06;;;15.83;57.74
7337;BME280;54510;42.016;23.098;2023-04-20T06:28:36;-21569.75;;;15.86;57.85
7337;BME280;54510;42.016;23.098;2023-04-20T06:31:02;-21576.38;;;16.10;57.23
7337;BME280;54510;42.016;23.098;2023-04-20T06:33:27;-21577.47;;;16.14;57.33
7337;BME280;54510;42.016;23.098;2023-04-20T06:35:52;-21581.88;;;16.30;56.57
7337;BME280;54510;42.016;23.098;2023-04-20T06:38:18;-21584.38;;;16.39;56.52
7337;BME280;54510;42.016;23.098;2023-04-20T06:40:44;-21586.16;;;16.46;55.88
7337;BME280;54510;42.016;23.098;2023-04-20T06:43:09;-21591.00;;;16.64;55.23
7337;BME280;54510;42.016;23.098;2023-04-20T06:45:34;-21593.06;;;16.71;54.70
7337;BME280;54510;42.016;23.098;2023-04-20T06:48:00;-21597.31;;;16.87;53.52
7337;BME280;54510;42.016;23.098;2023-04-20T06:50:25;-21599.94;;;16.96;53.81
7337;BME280;54510;42.016;23.098;2023-04-20T06:52:50;-21604.75;;;17.14;53.64
7337;BME280;54510;42.016;23.098;2023-04-20T06:55:15;-21602.69;;;17.07;53.82
7337;BME280;54510;42.016;23.098;2023-04-20T06:57:41;-21598.56;;;16.91;53.75
7337;BME280;54510;42.016;23.098;2023-04-20T07:00:08;-21598.97;;;16.93;53.97
7337;BME280;54510;42.016;23.098;2023-04-20T07:02:49;-21607.50;;;17.24;53.01
7337;BME280;54510;42.016;23.098;2023-04-20T07:05:15;-21616.47;;;17.57;51.76
7337;BME280;54510;42.016;23.098;2023-04-20T07:07:41;-21618.53;;;17.65;51.53
7337;BME280;54510;42.016;23.098;2023-04-20T07:10:07;-21625.41;;;17.90;51.06
7337;BME280;54510;42.016;23.098;2023-04-20T07:12:33;-21632.81;;;18.17;50.35
7337;BME280;54510;42.016;23.098;2023-04-20T07:15:00;-21623.63;;;17.84;50.25
7337;BME280;54510;42.016;23.098;2023-04-20T07:17:28;-21639.44;;;18.42;49.20
7337;BME280;54510;42.016;23.098;2023-04-20T07:19:54;-21637.78;;;18.36;48.98
7337;BME280;54510;42.016;23.098;2023-04-20T07:22:20;-21627.75;;;17.99;49.23
7337;BME280;54510;42.016;23.098;2023-04-20T07:24:45;-21627.75;;;17.99;49.08
7337;BME280;54510;42.016;23.098;2023-04-20T07:27:11;-21622.50;;;17.80;49.43
7337;BME280;54510;42.016;23.098;2023-04-20T07:29:36;-21626.09;;;17.93;49.23
7337;BME280;54510;42.016;23.098;2023-04-20T07:32:01;-21626.91;;;17.96;49.72
7337;BME280;54510;42.016;23.098;2023-04-20T07:34:26;-21627.75;;;17.99;49.72
7337;BME280;54510;42.016;23.098;2023-04-20T07:36:51;-21629.38;;;18.05;49.39
7337;BME280;54510;42.016;23.098;2023-04-20T07:39:17;-21636.69;;;18.32;48.80
7337;BME280;54510;42.016;23.098;2023-04-20T07:41:42;-21637.50;;;18.35;48.45
7337;BME280;54510;42.016;23.098;2023-04-20T07:44:07;-21629.81;;;18.06;48.83
7337;BME280;54510;42.016;23.098;2023-04-20T07:46:33;-21625.25;;;17.90;49.13
7337;BME280;54510;42.016;23.098;2023-04-20T07:48:58;-21632.69;;;18.17;48.32
7337;BME280;54510;42.016;23.098;2023-04-20T07:51:23;-21650.97;;;18.84;47.43
7337;BME280;54510;42.016;23.098;2023-04-20T07:53:49;-21645.88;;;18.66;44.93
7337;BME280;54510;42.016;23.098;2023-04-20T07:56:14;-21646.03;;;18.66;45.52
7337;BME280;54510;42.016;23.098;2023-04-20T07:58:39;-21645.88;;;18.66;44.35
7337;BME280;54510;42.016;23.098;2023-04-20T08:01:05;-21659.34;;;19.15;43.87
7337;BME280;54510;42.016;23.098;2023-04-20T08:03:31;-21662.50;;;19.27;43.13
7337;BME280;54510;42.016;23.098;2023-04-20T08:05:57;-21658.09;;;19.11;44.06
7337;BME280;54510;42.016;23.098;2023-04-20T08:08:22;-21670.06;;;19.55;42.30
7337;BME280;54510;42.016;23.098;2023-04-20T08:10:48;-21673.63;;;19.68;41.40
7337;BME280;54510;42.016;23.098;2023-04-20T08:13:13;-21650.84;;;18.84;42.70
7337;BME280;54510;42.016;23.098;2023-04-20T08:15:38;-21645.19;;;18.63;41.64
7337;BME280;54510;42.016;23.098;2023-04-20T08:18:03;-21651.66;;;18.87;42.05
7337;BME280;54510;42.016;23.098;2023-04-20T08:20:28;-21670.06;;;19.55;41.45
7337;BME280;54510;42.016;23.098;2023-04-20T08:22:54;-21677.75;;;19.83;40.44
7337;BME280;54510;42.016;23.098;2023-04-20T08:25:19;-21657.97;;;19.10;40.95
7337;BME280;54510;42.016;23.098;2023-04-20T08:27:45;-21677.19;;;19.81;41.05
7337;BME280;54510;42.016;23.098;2023-04-20T08:30:10;-21686.50;;;20.16;39.98
7337;BME280;54510;42.016;23.098;2023-04-20T08:32:36;-21675.81;;;19.76;40.87
7337;BME280;54510;42.016;23.098;2023-04-20T08:35:03;-21653.84;;;18.95;41.41
7337;BME280;54510;42.016;23.098;2023-04-20T08:37:28;-21654.53;;;18.98;41.57
7337;BME280;54510;42.016;23.098;2023-04-20T08:39:53;-21664.00;;;19.32;42.37
7337;BME280;54510;42.016;23.098;2023-04-20T08:42:19;-21683.50;;;20.04;40.54
7337;BME280;54510;42.016;23.098;2023-04-20T08:44:45;-21688.44;;;20.23;39.84
7337;BME280;54510;42.016;23.098;2023-04-20T08:47:10;-21663.47;;;19.30;41.18
7337;BME280;54510;42.016;23.098;2023-04-20T08:49:36;-21667.31;;;19.45;41.46
7337;BME280;54510;42.016;23.098;2023-04-20T08:52:03;-21672.53;;;19.64;41.19
7337;BME280;54510;42.016;23.098;2023-04-20T08:54:28;-21670.06;;;19.55;40.64
7337;BME280;54510;42.016;23.098;2023-04-20T08:56:54;-21661.94;;;19.25;41.42
7337;BME280;54510;42.016;23.098;2023-04-20T08:59:19;-21654.00;;;18.96;42.11
7337;BME280;54510;42.016;23.098;2023-04-20T09:01:44;-21650.28;;;18.82;43.02
7337;BME280;54510;42.016;23.098;2023-04-20T09:04:17;-21654.13;;;18.96;42.46
7337;BME280;54510;42.016;23.098;2023-04-20T09:06:46;-21658.78;;;19.13;42.13
7337;BME280;54510;42.016;23.098;2023-04-20T09:09:11;-21655.38;;;19.01;42.44
7337;BME280;54510;42.016;23.098;2023-04-20T09:11:37;-21652.06;;;18.88;41.87
7337;BME280;54510;42.016;23.098;2023-04-20T09:14:12;-21651.94;;;18.88;42.20
7337;BME280;54510;42.016;23.098;2023-04-20T09:16:47;-21666.75;;;19.43;41.41
7337;BME280;54510;42.016;23.098;2023-04-20T09:19:13;-21665.38;;;19.38;41.72
7337;BME280;54510;42.016;23.098;2023-04-20T09:21:46;-21656.19;;;19.04;42.10
7337;BME280;54510;42.016;23.098;2023-04-20T09:24:12;-21642.16;;;18.52;42.66
7337;BME280;54510;42.016;23.098;2023-04-20T09:26:37;-21645.75;;;18.65;42.67
7337;BME280;54510;42.016;23.098;2023-04-20T09:29:03;-21648.91;;;18.77;42.85
7337;BME280;54510;42.016;23.098;2023-04-20T09:31:39;-21662.09;;;19.25;42.14
7337;BME280;54510;42.016;23.098;2023-04-20T09:34:05;-21657.84;;;19.10;42.24
7337;BME280;54510;42.016;23.098;2023-04-20T09:36:40;-21643.16;;;18.56;43.19
7337;BME280;54510;42.016;23.098;2023-04-20T09:39:12;-21655.22;;;19.00;43.69
7337;BME280;54510;42.016;23.098;2023-04-20T09:41:39;-21639.69;;;18.43;43.24
7337;BME280;54510;42.016;23.098;2023-04-20T09:44:04;-21640.66;;;18.46;43.64
7337;BME280;54510;42.016;23.098;2023-04-20T09:46:37;-21645.47;;;18.64;43.55
7337;BME280;54510;42.016;23.098;2023-04-20T09:49:03;-21656.19;;;19.04;42.82
7337;BME280;54510;42.016;23.098;2023-04-20T09:51:30;-21663.47;;;19.30;42.54
7337;BME280;54510;42.016;23.098;2023-04-20T09:53:56;-21671.69;;;19.61;41.62
7337;BME280;54510;42.016;23.098;2023-04-20T09:56:22;-21674.44;;;19.71;41.30
7337;BME280;54510;42.016;23.098;2023-04-20T09:58:48;-21680.75;;;19.94;40.71
7337;BME280;54510;42.016;23.098;2023-04-20T10:01:15;-21668.41;;;19.49;41.28
7337;BME280;54510;42.016;23.098;2023-04-20T10:03:40;-21679.53;;;19.90;40.85
7337;BME280;54510;42.016;23.098;2023-04-20T10:06:17;-21670.59;;;19.57;41.13
7337;BME280;54510;42.016;23.098;2023-04-20T10:08:42;-21673.06;;;19.66;41.04
7337;BME280;54510;42.016;23.098;2023-04-20T10:11:07;-21675.69;;;19.76;40.85
7337;BME280;54510;42.016;23.098;2023-04-20T10:13:33;-21672.66;;;19.64;40.36
7337;BME280;54510;42.016;23.098;2023-04-20T10:15:58;-21669.22;;;19.52;40.29
7337;BME280;54510;42.016;23.098;2023-04-20T10:18:23;-21662.91;;;19.28;40.55
7337;BME280;54510;42.016;23.098;2023-04-20T10:20:49;-21675.69;;;19.76;40.28
7337;BME280;54510;42.016;23.098;2023-04-20T10:23:15;-21677.75;;;19.83;39.96
7337;BME280;54510;42.016;23.098;2023-04-20T10:25:42;-21683.22;;;20.03;39.37
7337;BME280;54510;42.016;23.098;2023-04-20T10:28:09;-21690.50;;;20.30;38.69
7337;BME280;54510;42.016;23.098;2023-04-20T10:30:35;-21681.84;;;19.98;39.10
7337;BME280;54510;42.016;23.098;2023-04-20T10:33:01;-21688.72;;;20.24;39.47
7337;BME280;54510;42.016;23.098;2023-04-20T10:35:27;-21691.47;;;20.34;38.91
7337;BME280;54510;42.016;23.098;2023-04-20T10:37:54;-21703.38;;;20.78;38.20
7337;BME280;54510;42.016;23.098;2023-04-20T10:40:25;-21695.72;;;20.49;38.00
7337;BME280;54510;42.016;23.098;2023-04-20T10:42:51;-21690.22;;;20.29;38.47
7337;BME280;54510;42.016;23.098;2023-04-20T10:45:16;-21692.00;;;20.36;38.92
7337;BME280;54510;42.016;23.098;2023-04-20T10:47:42;-21704.34;;;20.81;38.09
7337;BME280;54510;42.016;23.098;2023-04-20T10:52:35;-21699.97;;;20.65;37.96
7337;BME280;54510;42.016;23.098;2023-04-20T10:55:01;-21705.28;;;20.85;37.34
7337;BME280;54510;42.016;23.098;2023-04-20T10:57:27;-21708.44;;;20.97;37.32
7337;BME280;54510;42.016;23.098;2023-04-20T10:59:52;-21702.16;;;20.73;38.34
7337;BME280;54510;42.016;23.098;2023-04-20T11:02:17;-21715.84;;;21.24;37.30
7337;BME280;54510;42.016;23.098;2023-04-20T11:04:43;-21720.78;;;21.42;37.47
7337;BME280;54510;42.016;23.098;2023-04-20T11:07:09;-21711.47;;;21.08;37.67
7337;BME280;54510;42.016;23.098;2023-04-20T11:09:35;-21700.63;;;20.68;38.20
7337;BME280;54510;42.016;23.098;2023-04-20T11:12:11;-21712.00;;;21.10;38.13
7337;BME280;54510;42.016;23.098;2023-04-20T11:14:50;-21694.06;;;20.43;38.76
7337;BME280;54510;42.016;23.098;2023-04-20T11:17:15;-21698.19;;;20.59;39.08
7337;BME280;54510;42.016;23.098;2023-04-20T11:19:41;-21699.00;;;20.62;39.07
7337;BME280;54510;42.016;23.098;2023-04-20T11:22:06;-21703.09;;;20.77;39.07
7337;BME280;54510;42.016;23.098;2023-04-20T11:24:32;-21696.41;;;20.52;39.21
7337;BME280;54510;42.016;23.098;2023-04-20T11:27:01;-21701.19;;;20.70;38.74
7337;BME280;54510;42.016;23.098;2023-04-20T11:29:29;-21716.53;;;21.26;38.04
7337;BME280;54510;42.016;23.098;2023-04-20T11:31:55;-21719.69;;;21.38;37.46
7337;BME280;54510;42.016;23.098;2023-04-20T11:34:20;-21730.63;;;21.79;36.97
7337;BME280;54510;42.016;23.098;2023-04-20T11:36:46;-21735.81;;;21.98;36.47
7337;BME280;54510;42.016;23.098;2023-04-20T11:39:12;-21736.38;;;22.00;35.89
7337;BME280;54510;42.016;23.098;2023-04-20T11:41:38;-21723.50;;;21.52;36.90
7337;BME280;54510;42.016;23.098;2023-04-20T11:44:06;-21716.66;;;21.27;37.63
7337;BME280;54510;42.016;23.098;2023-04-20T11:46:33;-21703.38;;;20.78;38.87
7337;BME280;54510;42.016;23.098;2023-04-20T11:48:58;-21717.75;;;21.31;37.84
7337;BME280;54510;42.016;23.098;2023-04-20T11:51:24;-21740.19;;;22.14;36.68
7337;BME280;54510;42.016;23.098;2023-04-20T11:53:51;-21734.72;;;21.94;36.15
7337;BME280;54510;42.016;23.098;2023-04-20T11:56:16;-21730.91;;;21.80;36.60
7337;BME280;54510;42.016;23.098;2023-04-20T11:58:42;-21726.25;;;21.62;36.72
7337;BME280;54510;42.016;23.098;2023-04-20T12:01:07;-21728.97;;;21.73;36.64
7337;BME280;54510;42.016;23.098;2023-04-20T12:03:33;-21720.09;;;21.40;36.28
7337;BME280;54510;42.016;23.098;2023-04-20T12:05:58;-21744.03;;;22.28;35.69
7337;BME280;54510;42.016;23.098;2023-04-20T12:08:23;-21756.34;;;22.74;34.15
7337;BME280;54510;42.016;23.098;2023-04-20T12:10:48;-21738.56;;;22.08;34.76
7337;BME280;54510;42.016;23.098;2023-04-20T12:13:14;-21738.28;;;22.07;35.33
7337;BME280;54510;42.016;23.098;2023-04-20T12:15:39;-21720.50;;;21.41;36.13
7337;BME280;54510;42.016;23.098;2023-04-20T12:18:05;-21706.81;;;20.90;37.73
7337;BME280;54510;42.016;23.098;2023-04-20T12:20:30;-21723.91;;;21.54;37.28
7337;BME280;54510;42.016;23.098;2023-04-20T12:22:56;-21723.22;;;21.51;37.36
7337;BME280;54510;42.016;23.098;2023-04-20T12:25:21;-21704.59;;;20.82;38.00
7337;BME280;54510;42.016;23.098;2023-04-20T12:27:46;-21700.78;;;20.68;38.33
7337;BME280;54510;42.016;23.098;2023-04-20T12:30:12;-21702.97;;;20.76;38.10
7337;BME280;54510;42.016;23.098;2023-04-20T12:32:37;-21708.44;;;20.97;38.50
7337;BME280;54510;42.016;23.098;2023-04-20T12:35:03;-21722.16;;;21.47;37.72
7337;BME280;54510;42.016;23.098;2023-04-20T12:37:29;-21722.56;;;21.49;36.08
7337;BME280;54510;42.016;23.098;2023-04-20T12:39:54;-21729.13;;;21.73;35.79
7337;BME280;54510;42.016;23.098;2023-04-20T12:42:21;-21729.41;;;21.74;35.23
7337;BME280;54510;42.016;23.098;2023-04-20T12:44:46;-21737.75;;;22.05;35.06
7337;BME280;54510;42.016;23.098;2023-04-20T12:47:12;-21740.34;;;22.15;35.05